Time;durP1;ratioP1;P1;durP2;ratioP2;P2;SDS_P1;SDS_P2;PMS_P1;PMS_P2;Temp;Humidity;BMP_temperature;BMP_pressure;BME280_temperature;BME280_humidity;BME280_pressure;Samples;Min_cycle;Max_cycle;Signal;HPM_P1;HPM_P2
2021/06/30 00:02:23;;;;;;;18.33;11.65;;;12.90;99.90;;;;;;5070989;28;20371;-86
2021/06/30 00:04:50;;;;;;;17.77;11.55;;;12.90;99.90;;;;;;5052106;28;20424;-85
2021/06/30 00:07:17;;;;;;;21.63;11.37;;;12.80;99.90;;;;;;5071273;28;20861;-85
2021/06/30 00:09:44;;;;;;;20.80;11.80;;;12.80;99.90;;;;;;5070730;28;20939;-86
2021/06/30 00:12:11;;;;;;;23.92;12.02;;;12.70;99.90;;;;;;5071278;28;20436;-84
2021/06/30 00:14:39;;;;;;;28.38;13.35;;;12.80;99.90;;;;;;5070388;28;20386;-85
2021/06/30 00:17:08;;;;;;;19.80;11.93;;;12.70;99.90;;;;;;5070245;28;20891;-86
2021/06/30 00:19:36;;;;;;;20.02;12.30;;;12.90;99.90;;;;;;5051298;28;20391;-85
2021/06/30 00:22:03;;;;;;;18.83;11.85;;;13.00;99.90;;;;;;5051121;28;20392;-87
2021/06/30 00:24:30;;;;;;;17.43;11.47;;;13.20;99.90;;;;;;5051874;28;20790;-85
2021/06/30 00:26:58;;;;;;;16.13;11.15;;;13.50;99.90;;;;;;5050857;28;20459;-86
2021/06/30 00:29:24;;;;;;;14.80;10.73;;;13.60;99.90;;;;;;5057643;28;20376;-84
2021/06/30 00:31:51;;;;;;;18.15;11.98;;;13.50;99.90;;;;;;5063557;28;20398;-87
2021/06/30 00:34:18;;;;;;;17.70;11.95;;;13.60;99.90;;;;;;5061759;28;20387;-85
2021/06/30 00:36:47;;;;;;;18.13;12.45;;;13.70;99.90;;;;;;5064756;28;20409;-86
2021/06/30 00:39:19;;;;;;;21.85;12.85;;;13.80;99.90;;;;;;5054744;28;20418;-85
2021/06/30 00:41:47;;;;;;;18.00;11.30;;;13.80;99.90;;;;;;5051512;28;20486;-85
2021/06/30 00:44:14;;;;;;;15.68;11.43;;;13.80;99.90;;;;;;5049126;28;20422;-84
2021/06/30 00:46:41;;;;;;;15.53;10.13;;;13.80;99.90;;;;;;5055926;28;20865;-86
2021/06/30 00:49:09;;;;;;;12.65;9.98;;;13.90;99.90;;;;;;5050805;28;20465;-86
2021/06/30 00:51:37;;;;;;;15.70;10.35;;;14.00;99.90;;;;;;5052115;28;20441;-86
2021/06/30 00:54:04;;;;;;;16.17;10.15;;;13.80;99.90;;;;;;5050320;28;20828;-86
2021/06/30 00:56:40;;;;;;;15.07;9.43;;;13.90;99.90;;;;;;5051288;28;20414;-87
2021/06/30 00:59:10;;;;;;;12.82;8.90;;;13.80;99.90;;;;;;5065957;28;20389;-86
2021/06/30 01:01:38;;;;;;;14.23;8.98;;;13.80;99.90;;;;;;5063520;28;20378;-86
2021/06/30 01:04:05;;;;;;;11.73;8.57;;;13.90;99.90;;;;;;5057604;28;20384;-85
2021/06/30 01:06:32;;;;;;;11.70;8.88;;;14.00;99.90;;;;;;5058624;28;20395;-86
2021/06/30 01:09:03;;;;;;;14.47;9.43;;;14.00;99.90;;;;;;5053525;28;20774;-86
2021/06/30 01:11:34;;;;;;;11.60;7.00;;;14.10;99.90;;;;;;5065509;28;20732;-86
2021/06/30 01:14:01;;;;;;;11.82;7.82;;;14.20;99.90;;;;;;5067532;28;20377;-85
2021/06/30 01:16:28;;;;;;;10.17;7.33;;;14.40;99.90;;;;;;5050761;28;20404;-86
2021/06/30 01:18:55;;;;;;;10.77;7.65;;;14.60;99.90;;;;;;5053194;28;20419;-86
2021/06/30 01:21:22;;;;;;;12.95;8.80;;;14.60;99.90;;;;;;5061633;28;20393;-90
2021/06/30 01:23:49;;;;;;;9.18;6.97;;;14.60;99.90;;;;;;5067043;28;20374;-87
2021/06/30 01:26:17;;;;;;;9.38;5.55;;;14.50;99.90;;;;;;5050299;28;20390;-87
2021/06/30 01:28:44;;;;;;;8.82;5.03;;;14.50;99.90;;;;;;5058004;28;20388;-87
2021/06/30 01:31:11;;;;;;;7.13;5.07;;;14.50;99.90;;;;;;5058108;28;20391;-84
2021/06/30 01:33:38;;;;;;;6.22;4.60;;;14.60;99.90;;;;;;5060503;28;20392;-86
2021/06/30 01:36:06;;;;;;;5.35;4.60;;;14.60;99.90;;;;;;5058728;28;20497;-88
2021/06/30 01:38:34;;;;;;;6.00;4.35;;;14.60;99.90;;;;;;5067786;28;20397;-87
2021/06/30 01:41:01;;;;;;;5.13;3.58;;;14.50;99.90;;;;;;5069273;28;20393;-87
2021/06/30 01:43:28;;;;;;;6.75;3.85;;;14.50;99.90;;;;;;5057139;28;20894;-87
2021/06/30 01:45:55;;;;;;;6.78;3.80;;;14.60;99.90;;;;;;5081965;28;20475;-88
2021/06/30 01:48:23;;;;;;;4.63;3.55;;;14.70;99.90;;;;;;5088494;28;20404;-85
2021/06/30 01:50:53;;;;;;;4.32;3.00;;;14.80;99.90;;;;;;5073707;28;20388;-87
2021/06/30 01:53:21;;;;;;;4.20;3.28;;;14.80;99.90;;;;;;5053098;28;20454;-87
2021/06/30 01:55:48;;;;;;;5.60;3.20;;;14.90;99.90;;;;;;5063528;28;20457;-87
2021/06/30 01:58:23;;;;;;;5.57;3.15;;;14.90;99.90;;;;;;5057453;28;20398;-87
2021/06/30 02:00:54;;;;;;;4.68;3.05;;;15.00;99.90;;;;;;5057916;28;20398;-86
2021/06/30 02:03:21;;;;;;;5.80;2.80;;;15.10;99.90;;;;;;5053500;28;20925;-86
2021/06/30 02:05:48;;;;;;;6.55;2.25;;;15.20;99.90;;;;;;5049149;28;20403;-86
2021/06/30 02:08:17;;;;;;;5.38;3.17;;;15.30;99.90;;;;;;5054795;28;20397;-86
2021/06/30 02:10:45;;;;;;;4.13;2.70;;;15.40;99.90;;;;;;5053084;28;20391;-87
2021/06/30 02:13:12;;;;;;;5.53;3.85;;;15.50;99.90;;;;;;5049703;28;20490;-86
2021/06/30 02:15:41;;;;;;;6.20;3.55;;;15.50;99.90;;;;;;5051820;28;20431;-86
2021/06/30 02:18:09;;;;;;;4.40;3.22;;;15.50;99.90;;;;;;5066072;28;20740;-86
2021/06/30 02:20:37;;;;;;;5.47;3.00;;;15.60;99.90;;;;;;5066848;28;20378;-85
2021/06/30 02:23:04;;;;;;;5.60;3.17;;;15.70;99.90;;;;;;5053844;28;20396;-85
2021/06/30 02:25:32;;;;;;;6.10;3.28;;;15.70;99.90;;;;;;5064117;28;20382;-85
2021/06/30 02:27:59;;;;;;;4.28;3.17;;;15.50;99.90;;;;;;5050931;28;20876;-84
2021/06/30 02:30:28;;;;;;;6.97;3.38;;;15.40;99.90;;;;;;5063394;28;20907;-85
2021/06/30 02:32:56;;;;;;;6.72;2.95;;;15.40;99.90;;;;;;5064620;28;20378;-86
2021/06/30 02:35:25;;;;;;;7.07;3.45;;;15.40;99.90;;;;;;5050929;28;20913;-84
2021/06/30 02:37:54;;;;;;;5.22;3.53;;;15.50;99.90;;;;;;5048794;28;20380;-84
2021/06/30 02:40:24;;;;;;;5.65;3.33;;;15.50;99.90;;;;;;5052062;28;20399;-84
2021/06/30 02:42:52;;;;;;;6.10;3.20;;;15.60;99.90;;;;;;5066152;28;20409;-84
2021/06/30 02:45:20;;;;;;;7.63;3.38;;;15.60;99.90;;;;;;5063289;28;20429;-84
2021/06/30 02:47:48;;;;;;;5.40;3.40;;;15.60;99.90;;;;;;5058373;28;20466;-84
2021/06/30 02:50:19;;;;;;;5.90;3.08;;;15.60;99.90;;;;;;5067694;28;20447;-85
2021/06/30 02:52:50;;;;;;;3.97;3.17;;;15.60;99.90;;;;;;5062673;28;20852;-84
2021/06/30 02:55:19;;;;;;;4.28;2.78;;;15.70;99.90;;;;;;5048714;28;20368;-86
2021/06/30 02:57:47;;;;;;;4.53;2.80;;;15.80;99.90;;;;;;5053390;28;20475;-83
2021/06/30 03:00:21;;;;;;;6.40;3.28;;;15.90;99.90;;;;;;5053087;28;20380;-84
2021/06/30 03:02:49;;;;;;;5.28;2.40;;;16.10;99.90;;;;;;5054821;28;20880;-83
2021/06/30 03:05:16;;;;;;;4.00;2.45;;;16.20;99.90;;;;;;5070496;28;20381;-83
2021/06/30 03:07:44;;;;;;;4.32;2.47;;;16.30;99.90;;;;;;5057485;28;20379;-83
2021/06/30 03:10:13;;;;;;;3.67;2.42;;;16.40;99.90;;;;;;5054865;28;20911;-83
2021/06/30 03:12:40;;;;;;;4.88;2.33;;;16.60;99.90;;;;;;5058314;28;20376;-83
2021/06/30 03:15:09;;;;;;;4.18;2.20;;;16.60;99.90;;;;;;5063393;28;20412;-84
2021/06/30 03:17:37;;;;;;;6.65;2.63;;;16.50;99.90;;;;;;5056161;28;20451;-84
2021/06/30 03:20:06;;;;;;;5.45;2.67;;;16.40;99.90;;;;;;5064549;28;20501;-85
2021/06/30 03:22:33;;;;;;;4.07;2.17;;;16.30;99.90;;;;;;5062134;28;20448;-83
2021/06/30 03:25:01;;;;;;;9.02;3.70;;;16.20;99.90;;;;;;5052205;28;20387;-83
2021/06/30 03:27:28;;;;;;;5.50;2.60;;;16.20;99.90;;;;;;5052076;28;20395;-83
2021/06/30 03:29:55;;;;;;;6.40;2.92;;;16.10;99.90;;;;;;5064023;28;20476;-84
2021/06/30 03:32:22;;;;;;;6.50;2.87;;;16.10;99.90;;;;;;5070117;28;20780;-84
2021/06/30 03:34:49;;;;;;;4.80;2.70;;;16.10;99.90;;;;;;5070955;28;20757;-84
2021/06/30 03:37:16;;;;;;;4.88;2.80;;;16.00;99.90;;;;;;5057170;28;20407;-83
2021/06/30 03:39:43;;;;;;;7.10;2.83;;;16.00;99.90;;;;;;5051644;28;20726;-84
2021/06/30 03:42:10;;;;;;;5.35;3.38;;;16.00;99.90;;;;;;5071325;28;20912;-82
2021/06/30 03:44:37;;;;;;;5.15;2.88;;;16.00;99.90;;;;;;5071880;28;20406;-83
2021/06/30 03:47:04;;;;;;;4.85;2.63;;;16.00;99.90;;;;;;5067103;28;20379;-83
2021/06/30 03:49:31;;;;;;;8.02;3.20;;;16.00;99.90;;;;;;5051839;28;20418;-84
2021/06/30 03:51:58;;;;;;;5.37;2.70;;;16.00;99.90;;;;;;5057731;28;20496;-85
2021/06/30 03:54:26;;;;;;;5.22;2.70;;;15.90;99.90;;;;;;5051607;28;20407;-84
2021/06/30 03:56:54;;;;;;;4.32;2.67;;;16.00;99.90;;;;;;5051165;28;20870;-82
2021/06/30 03:59:21;;;;;;;6.32;2.88;;;16.20;99.90;;;;;;5067896;28;20382;-84
2021/06/30 04:01:50;;;;;;;5.28;2.88;;;16.10;99.90;;;;;;5070908;28;20382;-83
2021/06/30 04:04:19;;;;;;;7.20;3.00;;;16.10;99.90;;;;;;5063312;28;20437;-84
2021/06/30 04:06:46;;;;;;;7.75;3.03;;;16.00;99.90;;;;;;5052620;28;20731;-84
2021/06/30 04:09:15;;;;;;;6.45;3.20;;;15.90;99.90;;;;;;5051269;28;20788;-84
2021/06/30 04:11:42;;;;;;;6.20;3.00;;;15.80;99.90;;;;;;5065819;28;20394;-83
2021/06/30 04:14:09;;;;;;;6.38;2.97;;;15.70;99.90;;;;;;5069722;28;20375;-85
2021/06/30 04:16:37;;;;;;;7.43;2.83;;;15.80;99.90;;;;;;5063746;28;20407;-86
2021/06/30 04:19:05;;;;;;;7.13;3.30;;;15.80;99.90;;;;;;5051646;28;20803;-85
2021/06/30 04:21:32;;;;;;;4.68;2.78;;;15.80;99.90;;;;;;5050842;28;20406;-89
2021/06/30 04:23:59;;;;;;;7.18;3.65;;;15.90;99.90;;;;;;5051810;28;20412;-89
2021/06/30 04:26:26;;;;;;;6.55;2.97;;;15.90;99.90;;;;;;5056301;28;20407;-89
2021/06/30 04:28:53;;;;;;;3.83;2.75;;;15.90;99.90;;;;;;5063162;28;20436;-88
2021/06/30 04:31:22;;;;;;;4.60;2.80;;;15.80;99.90;;;;;;5069993;28;20861;-90
2021/06/30 04:33:49;;;;;;;6.40;3.00;;;15.80;99.90;;;;;;5060814;28;21232;-90
2021/06/30 04:36:17;;;;;;;5.32;3.22;;;15.80;99.90;;;;;;5051174;28;20403;-90
2021/06/30 04:38:44;;;;;;;6.32;3.03;;;15.70;99.90;;;;;;5066629;28;20405;-88
2021/06/30 04:41:11;;;;;;;7.00;3.20;;;15.60;99.90;;;;;;5053240;28;20376;-90
2021/06/30 04:43:39;;;;;;;9.02;3.10;;;15.50;99.90;;;;;;5060651;28;20394;-94
2021/06/30 04:46:07;;;;;;;6.35;3.50;;;15.40;99.90;;;;;;5057546;28;20791;-91
2021/06/30 04:48:35;;;;;;;5.90;3.03;;;15.40;99.90;;;;;;5070750;28;20404;-92
2021/06/30 04:51:03;;;;;;;4.03;2.58;;;15.40;99.90;;;;;;5067096;28;20422;-89
2021/06/30 04:53:30;;;;;;;5.45;2.72;;;15.30;99.90;;;;;;5052771;28;20463;-90
2021/06/30 04:55:58;;;;;;;5.28;3.20;;;15.20;99.90;;;;;;5051884;28;20453;-90
2021/06/30 04:58:26;;;;;;;4.90;3.05;;;15.20;99.90;;;;;;5050022;28;20396;-88
2021/06/30 05:00:55;;;;;;;5.28;2.75;;;15.10;99.90;;;;;;5052029;28;20372;-89
2021/06/30 05:03:27;;;;;;;6.37;3.07;;;15.00;99.90;;;;;;5054461;28;20395;-91
2021/06/30 05:05:55;;;;;;;7.07;2.95;;;14.90;99.90;;;;;;5064848;28;20475;-92
2021/06/30 05:08:23;;;;;;;6.07;3.08;;;14.90;99.90;;;;;;5057376;28;20804;-90
2021/06/30 05:10:52;;;;;;;7.70;3.45;;;14.80;99.90;;;;;;5080322;28;20729;-91
2021/06/30 05:13:19;;;;;;;5.53;3.15;;;14.70;99.90;;;;;;5086673;28;20458;-91
2021/06/30 05:15:46;;;;;;;5.05;2.85;;;14.70;99.90;;;;;;5051755;28;20867;-91
2021/06/30 05:18:13;;;;;;;6.87;3.17;;;14.80;99.90;;;;;;5051543;28;20767;-92
2021/06/30 05:20:40;;;;;;;7.90;3.25;;;14.70;99.90;;;;;;5055735;28;20519;-91
2021/06/30 05:23:07;;;;;;;6.40;3.20;;;14.80;99.90;;;;;;5070097;28;20378;-89
2021/06/30 05:25:34;;;;;;;9.40;3.53;;;14.70;99.90;;;;;;5062657;28;20388;-92
2021/06/30 05:28:01;;;;;;;8.77;3.42;;;14.70;99.90;;;;;;5061605;28;20378;-92
2021/06/30 05:30:28;;;;;;;5.57;3.13;;;14.70;99.90;;;;;;5058763;28;20436;-91
2021/06/30 05:32:55;;;;;;;5.87;3.47;;;14.70;99.90;;;;;;5061989;28;20383;-90
2021/06/30 05:35:22;;;;;;;6.20;3.30;;;14.70;99.90;;;;;;5063413;28;20809;-92
2021/06/30 05:37:50;;;;;;;8.02;3.70;;;14.60;99.90;;;;;;5055806;28;20415;-89
2021/06/30 05:40:17;;;;;;;6.45;3.47;;;14.60;99.90;;;;;;5057213;28;20884;-90
2021/06/30 05:42:44;;;;;;;7.53;3.38;;;14.60;99.90;;;;;;5057321;28;20461;-90
2021/06/30 05:45:18;;;;;;;7.28;3.58;;;14.60;99.90;;;;;;5052575;28;20740;-89
2021/06/30 05:47:45;;;;;;;10.18;3.90;;;14.70;99.90;;;;;;5059235;28;20750;-87
2021/06/30 05:50:17;;;;;;;8.77;3.63;;;14.70;99.90;;;;;;5065240;28;20378;-92
2021/06/30 05:52:44;;;;;;;8.00;3.80;;;14.70;99.90;;;;;;5050057;28;20439;-89
2021/06/30 05:55:12;;;;;;;7.80;3.70;;;14.70;99.90;;;;;;5057833;28;20392;-93
2021/06/30 05:57:39;;;;;;;12.10;4.22;;;14.70;99.90;;;;;;5055502;28;20769;-91
2021/06/30 06:00:12;;;;;;;7.55;3.70;;;14.70;99.90;;;;;;5065436;28;20401;-89
2021/06/30 06:02:38;;;;;;;7.95;3.70;;;14.70;99.90;;;;;;5069313;28;20872;-94
2021/06/30 06:05:06;;;;;;;8.53;3.77;;;14.70;99.90;;;;;;5073581;28;20378;-93
2021/06/30 06:07:33;;;;;;;8.30;3.15;;;14.60;99.90;;;;;;5065704;28;20386;-93
2021/06/30 06:10:00;;;;;;;9.85;3.90;;;14.50;99.90;;;;;;5061754;28;21250;-94
2021/06/30 06:12:29;;;;;;;7.22;3.53;;;14.60;99.90;;;;;;5056696;28;20429;-92
2021/06/30 06:14:56;;;;;;;11.52;4.30;;;14.60;99.90;;;;;;5062949;28;20902;-92
2021/06/30 06:17:23;;;;;;;7.93;3.80;;;14.70;99.90;;;;;;5052890;28;20476;-89
2021/06/30 06:19:50;;;;;;;10.95;3.88;;;14.70;99.90;;;;;;5052818;28;20403;-90
2021/06/30 06:22:17;;;;;;;7.97;3.90;;;14.70;99.90;;;;;;5049138;28;20391;-92
2021/06/30 06:24:45;;;;;;;11.67;4.40;;;14.70;99.90;;;;;;5055997;28;20446;-90
2021/06/30 06:27:12;;;;;;;9.68;4.20;;;14.60;99.90;;;;;;5058881;28;20413;-92
2021/06/30 06:29:39;;;;;;;12.07;4.15;;;14.60;99.90;;;;;;5068781;28;20797;-94
2021/06/30 06:32:07;;;;;;;8.60;4.07;;;14.60;99.90;;;;;;5054539;28;20422;-95
2021/06/30 06:34:34;;;;;;;8.65;4.00;;;14.60;99.90;;;;;;5064513;28;20471;-92
2021/06/30 06:37:03;;;;;;;10.32;4.38;;;14.50;99.90;;;;;;5067323;28;20521;-92
2021/06/30 06:39:30;;;;;;;10.25;4.00;;;14.50;99.90;;;;;;5050606;28;20859;-94
2021/06/30 06:41:57;;;;;;;7.18;3.72;;;14.50;99.90;;;;;;5066979;28;21121;-91
2021/06/30 06:44:24;;;;;;;12.00;4.22;;;14.40;99.90;;;;;;5060965;28;20399;-93
2021/06/30 06:46:51;;;;;;;9.20;4.25;;;14.40;99.90;;;;;;5064043;28;20388;-91
2021/06/30 06:49:18;;;;;;;10.20;4.45;;;14.40;99.90;;;;;;5057299;28;20399;-95
2021/06/30 06:51:45;;;;;;;10.77;4.85;;;14.30;99.90;;;;;;5063122;28;20401;-91
2021/06/30 06:54:12;;;;;;;11.70;4.80;;;14.30;99.90;;;;;;5057851;28;20740;-90
2021/06/30 06:56:39;;;;;;;7.35;4.63;;;14.30;99.90;;;;;;5063561;28;20414;-91
2021/06/30 06:59:06;;;;;;;10.68;4.97;;;14.30;99.90;;;;;;5048993;28;20376;-90
2021/06/30 07:01:33;;;;;;;10.88;5.72;;;14.30;99.90;;;;;;5052479;28;20751;-92
2021/06/30 07:04:00;;;;;;;17.10;5.63;;;14.30;99.90;;;;;;5051029;28;20904;-91
2021/06/30 07:06:27;;;;;;;11.73;6.10;;;14.30;99.90;;;;;;5059642;28;20473;-90
2021/06/30 07:08:54;;;;;;;10.48;7.00;;;14.30;99.90;;;;;;5054041;28;20368;-89
2021/06/30 07:11:21;;;;;;;11.05;6.10;;;14.40;99.90;;;;;;5051282;28;20486;-90
2021/06/30 07:13:48;;;;;;;11.43;6.28;;;14.30;99.90;;;;;;5053965;28;20375;-92
2021/06/30 07:16:15;;;;;;;10.48;6.15;;;14.30;99.90;;;;;;5066401;28;20925;-95
2021/06/30 07:18:43;;;;;;;16.50;6.73;;;14.30;99.90;;;;;;5055915;28;20390;-93
2021/06/30 07:21:10;;;;;;;11.27;5.97;;;14.20;99.90;;;;;;5081431;28;20871;-93
2021/06/30 07:23:38;;;;;;;12.70;6.30;;;14.10;99.90;;;;;;5064612;28;20384;-93
2021/06/30 07:26:06;;;;;;;11.93;6.82;;;14.20;99.90;;;;;;5054012;28;20380;-91
2021/06/30 07:28:33;;;;;;;14.88;7.68;;;14.10;99.90;;;;;;5053980;28;20394;-91
2021/06/30 07:31:00;;;;;;;12.77;7.80;;;14.10;99.90;;;;;;5057347;28;20490;-90
2021/06/30 07:33:27;;;;;;;11.75;6.85;;;14.10;99.90;;;;;;5057770;28;20382;-90
2021/06/30 07:35:54;;;;;;;14.32;6.40;;;14.10;99.90;;;;;;5053670;28;20410;-90
2021/06/30 07:38:25;;;;;;;13.65;6.40;;;14.10;99.90;;;;;;5060112;28;20408;-90
2021/06/30 07:40:53;;;;;;;15.57;7.15;;;14.10;99.90;;;;;;5058658;28;20394;-90
2021/06/30 07:43:20;;;;;;;11.82;7.00;;;14.00;99.90;;;;;;5064639;28;20413;-87
2021/06/30 07:45:47;;;;;;;10.75;6.40;;;14.00;99.90;;;;;;5051105;28;20406;-87
2021/06/30 07:48:14;;;;;;;13.55;7.95;;;14.00;99.90;;;;;;5052652;28;20388;-88
2021/06/30 07:50:41;;;;;;;13.77;7.80;;;14.00;99.90;;;;;;5056407;28;20384;-88
2021/06/30 07:53:08;;;;;;;15.57;7.47;;;13.90;99.90;;;;;;5060265;28;20389;-88
2021/06/30 07:55:35;;;;;;;13.75;7.72;;;13.90;99.90;;;;;;5065570;28;20477;-89
2021/06/30 07:58:02;;;;;;;15.98;8.07;;;13.90;99.90;;;;;;5069694;28;20398;-87
2021/06/30 08:00:29;;;;;;;13.27;7.38;;;13.80;99.90;;;;;;5054063;28;20402;-88
2021/06/30 08:02:56;;;;;;;12.88;7.63;;;13.70;99.90;;;;;;5068354;28;20472;-88
2021/06/30 08:05:23;;;;;;;13.13;7.70;;;13.60;99.90;;;;;;5053763;28;20874;-88
2021/06/30 08:07:50;;;;;;;15.05;8.20;;;13.60;99.90;;;;;;5059547;28;20398;-87
2021/06/30 08:10:17;;;;;;;16.10;8.80;;;13.40;99.90;;;;;;5058826;28;20395;-89
2021/06/30 08:12:44;;;;;;;15.02;8.75;;;13.30;99.90;;;;;;5048410;28;20469;-89
2021/06/30 08:15:11;;;;;;;14.60;8.00;;;13.30;99.90;;;;;;5055305;28;20391;-89
2021/06/30 08:17:39;;;;;;;14.73;8.47;;;13.30;99.90;;;;;;5062591;28;20747;-87
2021/06/30 08:20:06;;;;;;;16.00;10.70;;;13.20;99.90;;;;;;5058527;28;20437;-86
2021/06/30 08:22:34;;;;;;;19.48;11.25;;;13.20;99.90;;;;;;5061319;28;20396;-89
2021/06/30 08:25:01;;;;;;;16.63;9.97;;;13.10;99.90;;;;;;5055551;28;20927;-89
2021/06/30 08:27:28;;;;;;;16.93;10.40;;;13.20;99.90;;;;;;5059278;28;20395;-88
2021/06/30 08:29:57;;;;;;;14.52;9.18;;;13.10;99.90;;;;;;5062661;28;20455;-88
2021/06/30 08:32:25;;;;;;;18.67;9.40;;;13.00;99.90;;;;;;5052672;28;20480;-89
2021/06/30 08:34:52;;;;;;;12.75;9.07;;;13.00;99.90;;;;;;5053647;28;20387;-88
2021/06/30 08:37:21;;;;;;;13.63;8.93;;;12.90;99.90;;;;;;5062001;28;20447;-87
2021/06/30 08:39:51;;;;;;;15.80;8.68;;;12.90;99.90;;;;;;5055479;28;20399;-87
2021/06/30 08:42:19;;;;;;;16.63;8.95;;;12.90;99.90;;;;;;5051204;28;20408;-88
2021/06/30 08:44:46;;;;;;;14.80;8.75;;;12.80;99.90;;;;;;5063175;28;20452;-89
2021/06/30 08:47:14;;;;;;;19.77;9.40;;;12.70;99.90;;;;;;5056217;28;20395;-89
2021/06/30 08:49:43;;;;;;;12.50;8.17;;;12.70;99.90;;;;;;5059274;28;20396;-90
2021/06/30 08:52:12;;;;;;;15.52;9.25;;;12.70;99.90;;;;;;5051280;28;20399;-92
2021/06/30 08:54:42;;;;;;;16.95;9.57;;;12.60;99.90;;;;;;5058584;28;20396;-89
2021/06/30 08:57:10;;;;;;;18.33;10.38;;;12.60;99.90;;;;;;5063752;28;20876;-88
2021/06/30 08:59:37;;;;;;;18.88;11.25;;;12.50;99.90;;;;;;5060108;28;20394;-88
2021/06/30 09:02:05;;;;;;;17.50;10.88;;;12.50;99.90;;;;;;5058099;28;20405;-88
2021/06/30 09:04:33;;;;;;;18.15;12.13;;;12.40;99.90;;;;;;5052203;28;21115;-90
2021/06/30 09:07:00;;;;;;;19.50;11.90;;;12.40;99.90;;;;;;5051498;28;20376;-89
2021/06/30 09:09:36;;;;;;;17.20;10.93;;;12.30;99.90;;;;;;5061187;28;20727;-88
2021/06/30 09:12:06;;;;;;;16.13;11.30;;;12.30;99.90;;;;;;5057470;28;20391;-87
2021/06/30 09:14:40;;;;;;;16.70;11.63;;;12.30;99.90;;;;;;5050145;28;20406;-88
2021/06/30 09:17:21;;;;;;;18.75;12.27;;;12.30;99.90;;;;;;5049687;28;20416;-85
2021/06/30 09:19:55;;;;;;;18.47;12.13;;;12.30;99.90;;;;;;5049970;28;20391;-87
2021/06/30 09:22:26;;;;;;;19.65;12.65;;;12.30;99.90;;;;;;5050232;28;20392;-86
2021/06/30 09:24:55;;;;;;;19.57;13.27;;;12.30;99.90;;;;;;5057548;28;20458;-86
2021/06/30 09:27:42;;;;;;;24.13;14.77;;;12.30;99.90;;;;;;5060473;28;20446;-86
2021/06/30 09:30:12;;;;;;;29.80;18.40;;;12.30;99.90;;;;;;5057860;28;20463;-86
2021/06/30 09:32:53;;;;;;;27.10;18.08;;;12.20;99.90;;;;;;5069534;28;20378;-86
2021/06/30 09:35:25;;;;;;;26.13;18.40;;;12.10;99.90;;;;;;5051087;28;20376;-88
2021/06/30 09:37:52;;;;;;;22.75;16.83;;;12.00;99.90;;;;;;5049781;28;20457;-85
2021/06/30 09:40:19;;;;;;;23.65;15.45;;;12.00;99.90;;;;;;5058968;28;20467;-86
2021/06/30 09:42:47;;;;;;;19.55;14.52;;;12.00;99.90;;;;;;5049871;28;20392;-86
2021/06/30 09:45:21;;;;;;;19.10;13.95;;;12.00;99.90;;;;;;5058226;28;20478;-86
2021/06/30 09:47:51;;;;;;;21.50;13.13;;;12.10;99.90;;;;;;5058730;28;20467;-86
2021/06/30 09:50:35;;;;;;;17.73;12.15;;;12.00;99.90;;;;;;5060081;28;20426;-86
2021/06/30 09:53:03;;;;;;;16.85;11.88;;;12.00;99.90;;;;;;5048947;28;20398;-86
2021/06/30 09:55:32;;;;;;;17.30;11.73;;;12.10;99.90;;;;;;5059607;28;20409;-87
2021/06/30 09:57:59;;;;;;;14.80;10.68;;;12.10;99.90;;;;;;5057044;28;20498;-86
2021/06/30 10:00:28;;;;;;;16.48;9.68;;;12.10;99.90;;;;;;5062132;28;20386;-85
2021/06/30 10:03:00;;;;;;;15.70;9.65;;;12.10;99.90;;;;;;5061448;28;20394;-86
2021/06/30 10:05:34;;;;;;;14.75;8.90;;;12.10;99.90;;;;;;5055750;28;20386;-85
2021/06/30 10:08:12;;;;;;;13.60;8.02;;;12.10;99.90;;;;;;5052592;28;20418;-85
2021/06/30 10:10:39;;;;;;;13.15;8.13;;;12.20;99.90;;;;;;5054979;28;20421;-85
2021/06/30 10:13:06;;;;;;;14.30;7.57;;;12.20;99.90;;;;;;5055941;28;20396;-85
2021/06/30 10:15:34;;;;;;;10.90;6.63;;;12.20;99.90;;;;;;5063999;28;20411;-85
2021/06/30 10:18:03;;;;;;;11.88;6.50;;;12.30;99.90;;;;;;5054139;28;20421;-87
2021/06/30 10:20:30;;;;;;;10.55;7.18;;;12.30;99.90;;;;;;5047373;28;20465;-86
2021/06/30 10:22:57;;;;;;;13.82;7.63;;;12.30;99.90;;;;;;5050620;28;20434;-86
2021/06/30 10:25:25;;;;;;;17.77;7.93;;;12.30;99.90;;;;;;5064463;28;20370;-86
2021/06/30 10:27:54;;;;;;;15.82;8.80;;;12.40;99.90;;;;;;5057613;28;20383;-86
2021/06/30 10:30:22;;;;;;;12.63;8.40;;;12.30;99.90;;;;;;5051775;28;20379;-87
2021/06/30 10:33:00;;;;;;;16.03;9.00;;;12.40;99.90;;;;;;5050638;28;20390;-87
2021/06/30 10:35:27;;;;;;;18.58;9.40;;;12.40;99.90;;;;;;5046348;28;20379;-88
2021/06/30 10:37:56;;;;;;;18.60;10.63;;;12.40;99.90;;;;;;5046842;28;20400;-87
2021/06/30 10:40:24;;;;;;;19.98;12.57;;;12.40;99.90;;;;;;5050042;28;20754;-85
2021/06/30 10:43:32;;;;;;;18.80;11.60;;;12.50;99.90;;;;;;5046373;28;20443;-88
2021/06/30 10:46:26;;;;;;;15.50;12.02;;;12.50;99.90;;;;;;5024445;28;20420;-85
2021/06/30 10:49:26;;;;;;;18.42;11.80;;;12.50;99.90;;;;;;5052808;28;20387;-86
2021/06/30 10:51:55;;;;;;;20.92;12.52;;;12.40;99.90;;;;;;5054802;28;20400;-86
2021/06/30 10:54:34;;;;;;;18.95;11.50;;;12.30;99.90;;;;;;5049761;28;20448;-85
2021/06/30 10:57:29;;;;;;;18.67;12.77;;;12.30;99.90;;;;;;5063608;28;20448;-86
2021/06/30 11:00:05;;;;;;;20.33;13.27;;;12.30;99.90;;;;;;5059885;28;20556;-86
2021/06/30 11:02:34;;;;;;;18.85;13.43;;;12.20;99.90;;;;;;5053413;28;20393;-86
2021/06/30 11:05:13;;;;;;;19.38;13.88;;;12.20;99.90;;;;;;5063526;28;20508;-85
2021/06/30 11:07:42;;;;;;;20.67;14.73;;;12.20;99.90;;;;;;5063352;28;20409;-85
2021/06/30 11:10:20;;;;;;;16.63;13.25;;;12.20;99.90;;;;;;5057539;28;20404;-86
2021/06/30 11:12:55;;;;;;;16.60;13.18;;;12.20;99.90;;;;;;5060408;28;20389;-86
2021/06/30 11:15:40;;;;;;;16.70;12.43;;;12.10;99.90;;;;;;5049161;28;20771;-85
2021/06/30 11:18:13;;;;;;;17.17;11.65;;;12.20;99.90;;;;;;5046924;28;20499;-87
2021/06/30 11:20:47;;;;;;;18.83;11.88;;;12.20;99.90;;;;;;5050760;28;20399;-87
2021/06/30 11:23:28;;;;;;;17.10;10.65;;;12.30;99.90;;;;;;5055938;28;20421;-86
2021/06/30 11:26:35;;;;;;;18.60;11.85;;;12.30;99.90;;;;;;5057847;28;20418;-87
2021/06/30 11:29:58;;;;;;;16.90;11.35;;;12.30;99.90;;;;;;5058106;28;20418;-86
2021/06/30 11:32:43;;;;;;;15.68;10.77;;;12.30;99.90;;;;;;5050151;28;20980;-86
2021/06/30 11:35:11;;;;;;;16.13;10.60;;;12.30;99.90;;;;;;5052605;28;20398;-85
2021/06/30 11:37:39;;;;;;;15.02;9.60;;;12.30;99.90;;;;;;5049756;28;20418;-86
2021/06/30 11:40:18;;;;;;;14.23;10.70;;;12.40;99.90;;;;;;5048877;28;20383;-88
2021/06/30 11:42:50;;;;;;;31.98;23.33;;;12.40;99.90;;;;;;5052494;28;20439;-87
2021/06/30 11:45:22;;;;;;;18.25;14.32;;;12.40;99.90;;;;;;5053334;28;20407;-87
2021/06/30 11:47:57;;;;;;;51.07;34.27;;;12.40;99.90;;;;;;5070072;28;20493;-87
2021/06/30 11:50:31;;;;;;;42.88;31.88;;;12.40;99.90;;;;;;5071785;28;20402;-86
2021/06/30 11:53:00;;;;;;;46.90;36.78;;;12.50;99.90;;;;;;5070246;28;20468;-87
2021/06/30 11:55:35;;;;;;;46.45;32.60;;;12.50;99.90;;;;;;5054571;28;20403;-86
2021/06/30 11:58:03;;;;;;;21.60;17.50;;;12.50;99.90;;;;;;5052449;28;20936;-87
2021/06/30 12:00:33;;;;;;;26.67;18.50;;;12.50;99.90;;;;;;5060158;28;20505;-88
2021/06/30 12:03:02;;;;;;;27.40;19.85;;;12.50;99.90;;;;;;5076108;28;20471;-85
2021/06/30 12:05:38;;;;;;;19.88;15.40;;;12.40;99.90;;;;;;5052258;28;20383;-84
2021/06/30 12:08:08;;;;;;;18.33;13.93;;;12.30;99.90;;;;;;5051665;28;20414;-86
2021/06/30 12:10:38;;;;;;;20.90;14.50;;;12.20;99.90;;;;;;5054676;28;20383;-87
2021/06/30 12:13:11;;;;;;;16.15;13.10;;;12.20;99.90;;;;;;5062975;28;20400;-87
2021/06/30 12:15:43;;;;;;;22.90;14.77;;;12.10;99.90;;;;;;5057799;28;20379;-86
2021/06/30 12:18:14;;;;;;;26.08;20.83;;;12.00;99.90;;;;;;5061387;28;20391;-87
2021/06/30 12:20:44;;;;;;;20.57;15.97;;;12.00;99.90;;;;;;5066005;28;20389;-85
2021/06/30 12:23:11;;;;;;;23.65;19.20;;;11.90;99.90;;;;;;5067190;28;20386;-87
2021/06/30 12:25:38;;;;;;;25.52;19.95;;;12.00;99.90;;;;;;5066689;28;20371;-86
2021/06/30 12:28:08;;;;;;;21.73;18.73;;;12.00;99.90;;;;;;5054554;28;20391;-86
2021/06/30 12:30:37;;;;;;;21.80;16.98;;;11.90;99.90;;;;;;5059148;28;20386;-86
2021/06/30 12:33:10;;;;;;;20.35;15.95;;;11.90;99.90;;;;;;5053630;28;20395;-85
2021/06/30 12:35:40;;;;;;;23.02;14.75;;;11.80;99.90;;;;;;5050982;28;20465;-87
2021/06/30 12:38:10;;;;;;;19.80;14.05;;;11.80;99.90;;;;;;5050593;28;20415;-86
2021/06/30 12:40:38;;;;;;;21.15;15.20;;;11.80;99.90;;;;;;5057087;28;20405;-87
2021/06/30 12:43:18;;;;;;;25.35;18.00;;;11.80;99.90;;;;;;5071346;28;20412;-86
2021/06/30 12:45:50;;;;;;;29.50;21.60;;;11.80;99.90;;;;;;5059925;28;20435;-87
2021/06/30 12:48:22;;;;;;;32.78;21.30;;;11.70;99.90;;;;;;5052782;28;20404;-85
2021/06/30 12:50:52;;;;;;;27.77;20.58;;;11.70;99.90;;;;;;5057427;28;20381;-86